sensor_id;sensor_type;location;lat;lon;timestamp;P1;durP1;ratioP1;P2;durP2;ratioP2
50393;SDS011;36308;46.312;25.288;2023-05-10T00:02:07;4.88;;;2.92;;
50393;SDS011;36308;46.312;25.288;2023-05-10T00:04:32;7.68;;;3.40;;
50393;SDS011;36308;46.312;25.288;2023-05-10T00:06:58;6.75;;;3.30;;
50393;SDS011;36308;46.312;25.288;2023-05-10T00:09:23;6.03;;;3.53;;
50393;SDS011;36308;46.312;25.288;2023-05-10T00:11:49;5.03;;;3.08;;
50393;SDS011;36308;46.312;25.288;2023-05-10T00:14:15;4.25;;;2.78;;
50393;SDS011;36308;46.312;25.288;2023-05-10T00:16:40;6.05;;;3.22;;
50393;SDS011;36308;46.312;25.288;2023-05-10T00:19:06;5.50;;;3.15;;
50393;SDS011;36308;46.312;25.288;2023-05-10T00:21:32;4.95;;;2.70;;
50393;SDS011;36308;46.312;25.288;2023-05-10T00:23:58;3.50;;;2.42;;
50393;SDS011;36308;46.312;25.288;2023-05-10T00:26:24;6.13;;;2.97;;
50393;SDS011;36308;46.312;25.288;2023-05-10T00:28:49;4.03;;;2.70;;
50393;SDS011;36308;46.312;25.288;2023-05-10T00:31:15;4.90;;;2.75;;
50393;SDS011;36308;46.312;25.288;2023-05-10T00:33:40;3.72;;;2.35;;
50393;SDS011;36308;46.312;25.288;2023-05-10T00:36:06;3.42;;;2.55;;
50393;SDS011;36308;46.312;25.288;2023-05-10T00:38:32;3.65;;;2.28;;
50393;SDS011;36308;46.312;25.288;2023-05-10T00:40:58;4.63;;;2.75;;
50393;SDS011;36308;46.312;25.288;2023-05-10T00:43:24;3.20;;;2.28;;
50393;SDS011;36308;46.312;25.288;2023-05-10T00:45:49;4.32;;;2.70;;
50393;SDS011;36308;46.312;25.288;2023-05-10T00:48:15;6.10;;;2.50;;
50393;SDS011;36308;46.312;25.288;2023-05-10T00:53:27;5.00;;;2.63;;
50393;SDS011;36308;46.312;25.288;2023-05-10T00:55:56;6.65;;;2.33;;
50393;SDS011;36308;46.312;25.288;2023-05-10T01:01:06;4.45;;;2.45;;
50393;SDS011;36308;46.312;25.288;2023-05-10T01:03:33;4.53;;;2.38;;
50393;SDS011;36308;46.312;25.288;2023-05-10T01:05:59;3.35;;;2.15;;
50393;SDS011;36308;46.312;25.288;2023-05-10T01:08:26;3.80;;;2.28;;
50393;SDS011;36308;46.312;25.288;2023-05-10T01:10:51;5.10;;;2.55;;
50393;SDS011;36308;46.312;25.288;2023-05-10T01:13:52;4.28;;;2.72;;
50393;SDS011;36308;46.312;25.288;2023-05-10T01:16:20;4.85;;;2.50;;
50393;SDS011;36308;46.312;25.288;2023-05-10T01:18:46;6.18;;;2.80;;
50393;SDS011;36308;46.312;25.288;2023-05-10T01:21:29;3.92;;;2.50;;
50393;SDS011;36308;46.312;25.288;2023-05-10T01:27:33;5.38;;;2.35;;
50393;SDS011;36308;46.312;25.288;2023-05-10T01:35:51;3.35;;;2.40;;
50393;SDS011;36308;46.312;25.288;2023-05-10T01:43:32;7.32;;;2.33;;
50393;SDS011;36308;46.312;25.288;2023-05-10T01:46:03;3.58;;;2.20;;
50393;SDS011;36308;46.312;25.288;2023-05-10T01:48:47;4.60;;;2.55;;
50393;SDS011;36308;46.312;25.288;2023-05-10T01:51:16;4.28;;;2.38;;
50393;SDS011;36308;46.312;25.288;2023-05-10T01:53:46;3.53;;;2.50;;
50393;SDS011;36308;46.312;25.288;2023-05-10T01:56:13;6.70;;;3.08;;
50393;SDS011;36308;46.312;25.288;2023-05-10T01:58:40;3.63;;;2.47;;
50393;SDS011;36308;46.312;25.288;2023-05-10T02:01:11;4.18;;;2.90;;
50393;SDS011;36308;46.312;25.288;2023-05-10T02:03:38;2.97;;;1.98;;
50393;SDS011;36308;46.312;25.288;2023-05-10T02:06:06;4.63;;;2.47;;
50393;SDS011;36308;46.312;25.288;2023-05-10T02:08:34;3.78;;;2.30;;
50393;SDS011;36308;46.312;25.288;2023-05-10T02:11:01;3.55;;;2.50;;
50393;SDS011;36308;46.312;25.288;2023-05-10T02:13:29;3.80;;;2.65;;
50393;SDS011;36308;46.312;25.288;2023-05-10T02:16:00;4.93;;;2.58;;
50393;SDS011;36308;46.312;25.288;2023-05-10T02:18:28;3.10;;;2.10;;
50393;SDS011;36308;46.312;25.288;2023-05-10T02:20:55;4.15;;;2.53;;
50393;SDS011;36308;46.312;25.288;2023-05-10T02:23:23;4.05;;;2.65;;
50393;SDS011;36308;46.312;25.288;2023-05-10T02:25:50;3.67;;;2.10;;
50393;SDS011;36308;46.312;25.288;2023-05-10T02:28:17;3.85;;;2.50;;
50393;SDS011;36308;46.312;25.288;2023-05-10T02:30:46;4.57;;;2.47;;
50393;SDS011;36308;46.312;25.288;2023-05-10T02:33:13;5.10;;;2.97;;
50393;SDS011;36308;46.312;25.288;2023-05-10T02:35:39;6.88;;;4.32;;
50393;SDS011;36308;46.312;25.288;2023-05-10T02:38:06;11.00;;;6.32;;
50393;SDS011;36308;46.312;25.288;2023-05-10T02:40:32;9.07;;;5.32;;
50393;SDS011;36308;46.312;25.288;2023-05-10T02:42:59;8.10;;;5.00;;
50393;SDS011;36308;46.312;25.288;2023-05-10T02:45:29;7.72;;;4.82;;
50393;SDS011;36308;46.312;25.288;2023-05-10T02:47:56;6.43;;;3.83;;
50393;SDS011;36308;46.312;25.288;2023-05-10T02:50:22;6.10;;;3.70;;
50393;SDS011;36308;46.312;25.288;2023-05-10T02:52:54;7.78;;;4.50;;
50393;SDS011;36308;46.312;25.288;2023-05-10T02:55:25;8.80;;;5.60;;
50393;SDS011;36308;46.312;25.288;2023-05-10T02:57:58;10.82;;;5.53;;
50393;SDS011;36308;46.312;25.288;2023-05-10T03:00:25;8.68;;;4.53;;
50393;SDS011;36308;46.312;25.288;2023-05-10T03:02:51;7.75;;;4.38;;
50393;SDS011;36308;46.312;25.288;2023-05-10T03:05:17;8.52;;;5.15;;
50393;SDS011;36308;46.312;25.288;2023-05-10T03:07:43;8.77;;;5.35;;
50393;SDS011;36308;46.312;25.288;2023-05-10T03:10:09;9.77;;;4.80;;
50393;SDS011;36308;46.312;25.288;2023-05-10T03:21:02;15.27;;;6.45;;
50393;SDS011;36308;46.312;25.288;2023-05-10T03:23:44;13.65;;;7.22;;
50393;SDS011;36308;46.312;25.288;2023-05-10T03:26:15;16.60;;;7.45;;
50393;SDS011;36308;46.312;25.288;2023-05-10T03:28:45;15.48;;;7.90;;
50393;SDS011;36308;46.312;25.288;2023-05-10T03:31:13;13.02;;;6.95;;
50393;SDS011;36308;46.312;25.288;2023-05-10T03:33:48;12.00;;;5.43;;
50393;SDS011;36308;46.312;25.288;2023-05-10T03:36:15;6.82;;;4.10;;
50393;SDS011;36308;46.312;25.288;2023-05-10T03:41:25;9.40;;;4.00;;
50393;SDS011;36308;46.312;25.288;2023-05-10T03:43:51;8.20;;;3.70;;
50393;SDS011;36308;46.312;25.288;2023-05-10T03:46:16;8.02;;;4.50;;
50393;SDS011;36308;46.312;25.288;2023-05-10T03:48:42;13.35;;;8.10;;
50393;SDS011;36308;46.312;25.288;2023-05-10T03:51:08;24.25;;;16.20;;
50393;SDS011;36308;46.312;25.288;2023-05-10T03:53:33;28.10;;;17.23;;
50393;SDS011;36308;46.312;25.288;2023-05-10T03:55:59;24.42;;;14.73;;
50393;SDS011;36308;46.312;25.288;2023-05-10T03:58:24;18.17;;;11.00;;
50393;SDS011;36308;46.312;25.288;2023-05-10T04:00:50;15.30;;;9.77;;
50393;SDS011;36308;46.312;25.288;2023-05-10T04:03:16;16.75;;;9.88;;
50393;SDS011;36308;46.312;25.288;2023-05-10T04:05:42;15.05;;;8.38;;
50393;SDS011;36308;46.312;25.288;2023-05-10T04:08:08;15.93;;;8.13;;
50393;SDS011;36308;46.312;25.288;2023-05-10T04:10:33;13.57;;;7.32;;
50393;SDS011;36308;46.312;25.288;2023-05-10T04:12:59;13.55;;;7.07;;
50393;SDS011;36308;46.312;25.288;2023-05-10T04:15:24;13.52;;;7.65;;
50393;SDS011;36308;46.312;25.288;2023-05-10T04:17:50;13.43;;;8.25;;
50393;SDS011;36308;46.312;25.288;2023-05-10T04:20:16;15.13;;;8.93;;
50393;SDS011;36308;46.312;25.288;2023-05-10T04:22:41;17.35;;;9.35;;
50393;SDS011;36308;46.312;25.288;2023-05-10T04:25:07;16.08;;;9.23;;
50393;SDS011;36308;46.312;25.288;2023-05-10T04:27:33;16.05;;;9.00;;
50393;SDS011;36308;46.312;25.288;2023-05-10T04:29:59;20.48;;;10.30;;
50393;SDS011;36308;46.312;25.288;2023-05-10T04:32:24;23.20;;;11.25;;
50393;SDS011;36308;46.312;25.288;2023-05-10T04:35:08;25.10;;;12.30;;
50393;SDS011;36308;46.312;25.288;2023-05-10T04:37:35;21.17;;;11.60;;
50393;SDS011;36308;46.312;25.288;2023-05-10T04:40:01;18.77;;;12.20;;
50393;SDS011;36308;46.312;25.288;2023-05-10T04:42:28;18.60;;;11.40;;
50393;SDS011;36308;46.312;25.288;2023-05-10T04:44:54;20.27;;;10.80;;
50393;SDS011;36308;46.312;25.288;2023-05-10T04:47:19;21.38;;;10.77;;
50393;SDS011;36308;46.312;25.288;2023-05-10T04:49:45;25.33;;;13.73;;
50393;SDS011;36308;46.312;25.288;2023-05-10T04:52:10;15.98;;;9.43;;
50393;SDS011;36308;46.312;25.288;2023-05-10T04:54:36;19.00;;;9.77;;
50393;SDS011;36308;46.312;25.288;2023-05-10T04:57:02;15.48;;;9.85;;
50393;SDS011;36308;46.312;25.288;2023-05-10T04:59:27;16.73;;;8.50;;
50393;SDS011;36308;46.312;25.288;2023-05-10T05:01:53;20.58;;;9.48;;
50393;SDS011;36308;46.312;25.288;2023-05-10T05:04:18;21.92;;;12.30;;
50393;SDS011;36308;46.312;25.288;2023-05-10T05:06:44;22.98;;;13.05;;
50393;SDS011;36308;46.312;25.288;2023-05-10T05:09:09;26.15;;;15.27;;
50393;SDS011;36308;46.312;25.288;2023-05-10T05:11:35;30.67;;;16.60;;
50393;SDS011;36308;46.312;25.288;2023-05-10T05:14:00;21.58;;;12.73;;
50393;SDS011;36308;46.312;25.288;2023-05-10T05:16:26;19.58;;;10.13;;
50393;SDS011;36308;46.312;25.288;2023-05-10T05:18:52;24.05;;;9.82;;
50393;SDS011;36308;46.312;25.288;2023-05-10T05:21:18;16.63;;;8.82;;
50393;SDS011;36308;46.312;25.288;2023-05-10T05:23:44;17.80;;;10.30;;
50393;SDS011;36308;46.312;25.288;2023-05-10T05:26:10;16.42;;;8.75;;
50393;SDS011;36308;46.312;25.288;2023-05-10T05:28:36;12.70;;;7.72;;
50393;SDS011;36308;46.312;25.288;2023-05-10T05:31:03;13.48;;;6.90;;
50393;SDS011;36308;46.312;25.288;2023-05-10T05:33:31;17.38;;;7.53;;
50393;SDS011;36308;46.312;25.288;2023-05-10T05:35:57;12.70;;;7.00;;
50393;SDS011;36308;46.312;25.288;2023-05-10T05:38:26;12.95;;;5.95;;
50393;SDS011;36308;46.312;25.288;2023-05-10T05:40:51;10.13;;;5.20;;
50393;SDS011;36308;46.312;25.288;2023-05-10T05:43:16;9.95;;;4.82;;
50393;SDS011;36308;46.312;25.288;2023-05-10T05:45:42;10.02;;;5.53;;
50393;SDS011;36308;46.312;25.288;2023-05-10T05:48:07;8.23;;;4.50;;
50393;SDS011;36308;46.312;25.288;2023-05-10T05:50:33;10.38;;;5.00;;
50393;SDS011;36308;46.312;25.288;2023-05-10T05:52:58;26.52;;;5.63;;
50393;SDS011;36308;46.312;25.288;2023-05-10T05:55:24;14.85;;;4.72;;
50393;SDS011;36308;46.312;25.288;2023-05-10T05:57:51;7.07;;;3.90;;
50393;SDS011;36308;46.312;25.288;2023-05-10T06:00:16;5.63;;;2.75;;
50393;SDS011;36308;46.312;25.288;2023-05-10T06:02:42;6.45;;;3.20;;
50393;SDS011;36308;46.312;25.288;2023-05-10T06:05:07;5.57;;;2.97;;
50393;SDS011;36308;46.312;25.288;2023-05-10T06:07:33;5.22;;;2.60;;
50393;SDS011;36308;46.312;25.288;2023-05-10T06:09:59;2.92;;;2.22;;
50393;SDS011;36308;46.312;25.288;2023-05-10T06:12:24;4.93;;;2.40;;
50393;SDS011;36308;46.312;25.288;2023-05-10T06:14:50;4.15;;;2.47;;
50393;SDS011;36308;46.312;25.288;2023-05-10T06:17:16;7.65;;;2.55;;
50393;SDS011;36308;46.312;25.288;2023-05-10T06:19:41;4.38;;;2.40;;
50393;SDS011;36308;46.312;25.288;2023-05-10T06:22:07;4.25;;;2.55;;
50393;SDS011;36308;46.312;25.288;2023-05-10T06:24:32;4.32;;;1.83;;
50393;SDS011;36308;46.312;25.288;2023-05-10T06:26:57;7.50;;;2.00;;
50393;SDS011;36308;46.312;25.288;2023-05-10T06:29:25;9.82;;;2.13;;
50393;SDS011;36308;46.312;25.288;2023-05-10T06:31:51;5.82;;;2.35;;
50393;SDS011;36308;46.312;25.288;2023-05-10T06:34:16;3.50;;;1.95;;
50393;SDS011;36308;46.312;25.288;2023-05-10T06:36:42;21.05;;;4.28;;
50393;SDS011;36308;46.312;25.288;2023-05-10T06:39:07;24.88;;;5.55;;
50393;SDS011;36308;46.312;25.288;2023-05-10T06:41:33;17.27;;;3.38;;
50393;SDS011;36308;46.312;25.288;2023-05-10T06:43:58;7.68;;;2.40;;
50393;SDS011;36308;46.312;25.288;2023-05-10T06:46:23;6.93;;;2.13;;
50393;SDS011;36308;46.312;25.288;2023-05-10T06:48:49;6.00;;;2.33;;
50393;SDS011;36308;46.312;25.288;2023-05-10T06:51:15;6.97;;;2.05;;
50393;SDS011;36308;46.312;25.288;2023-05-10T06:53:40;2.67;;;1.80;;
50393;SDS011;36308;46.312;25.288;2023-05-10T06:56:06;11.52;;;1.95;;
50393;SDS011;36308;46.312;25.288;2023-05-10T06:58:31;6.03;;;2.33;;
50393;SDS011;36308;46.312;25.288;2023-05-10T07:01:04;5.60;;;1.90;;
50393;SDS011;36308;46.312;25.288;2023-05-10T07:03:31;4.53;;;2.10;;
50393;SDS011;36308;46.312;25.288;2023-05-10T07:06:00;6.00;;;1.95;;
50393;SDS011;36308;46.312;25.288;2023-05-10T07:08:30;5.65;;;2.10;;
50393;SDS011;36308;46.312;25.288;2023-05-10T07:11:00;2.95;;;1.48;;
50393;SDS011;36308;46.312;25.288;2023-05-10T07:13:26;2.95;;;1.60;;
50393;SDS011;36308;46.312;25.288;2023-05-10T07:15:51;4.13;;;1.80;;
50393;SDS011;36308;46.312;25.288;2023-05-10T07:18:17;2.33;;;1.65;;
50393;SDS011;36308;46.312;25.288;2023-05-10T07:20:42;2.65;;;1.40;;
50393;SDS011;36308;46.312;25.288;2023-05-10T07:23:08;2.17;;;1.63;;
50393;SDS011;36308;46.312;25.288;2023-05-10T07:25:33;2.65;;;1.65;;
50393;SDS011;36308;46.312;25.288;2023-05-10T07:27:59;2.47;;;1.52;;
50393;SDS011;36308;46.312;25.288;2023-05-10T07:30:25;3.20;;;1.50;;
50393;SDS011;36308;46.312;25.288;2023-05-10T07:32:51;2.30;;;1.38;;
50393;SDS011;36308;46.312;25.288;2023-05-10T07:35:16;4.20;;;1.75;;
50393;SDS011;36308;46.312;25.288;2023-05-10T07:37:42;2.97;;;1.60;;
50393;SDS011;36308;46.312;25.288;2023-05-10T07:40:07;3.95;;;1.67;;
50393;SDS011;36308;46.312;25.288;2023-05-10T07:42:33;4.43;;;1.50;;
50393;SDS011;36308;46.312;25.288;2023-05-10T07:44:59;2.90;;;1.20;;
50393;SDS011;36308;46.312;25.288;2023-05-10T07:47:24;2.63;;;1.50;;
50393;SDS011;36308;46.312;25.288;2023-05-10T07:49:50;3.17;;;1.38;;
50393;SDS011;36308;46.312;25.288;2023-05-10T07:52:15;1.98;;;1.00;;
50393;SDS011;36308;46.312;25.288;2023-05-10T07:54:41;1.63;;;1.27;;
50393;SDS011;36308;46.312;25.288;2023-05-10T07:57:06;2.20;;;1.60;;
50393;SDS011;36308;46.312;25.288;2023-05-10T08:02:01;3.13;;;1.58;;
50393;SDS011;36308;46.312;25.288;2023-05-10T08:04:26;4.00;;;1.30;;
50393;SDS011;36308;46.312;25.288;2023-05-10T08:06:52;5.35;;;1.20;;
50393;SDS011;36308;46.312;25.288;2023-05-10T08:09:17;9.98;;;5.35;;
50393;SDS011;36308;46.312;25.288;2023-05-10T08:11:48;3.25;;;1.80;;
50393;SDS011;36308;46.312;25.288;2023-05-10T08:14:14;12.25;;;2.13;;
50393;SDS011;36308;46.312;25.288;2023-05-10T08:16:39;2.17;;;1.40;;
50393;SDS011;36308;46.312;25.288;2023-05-10T08:19:05;3.00;;;1.55;;
50393;SDS011;36308;46.312;25.288;2023-05-10T08:21:30;3.80;;;1.60;;
50393;SDS011;36308;46.312;25.288;2023-05-10T08:23:56;4.97;;;1.60;;
50393;SDS011;36308;46.312;25.288;2023-05-10T08:26:21;11.15;;;5.15;;
50393;SDS011;36308;46.312;25.288;2023-05-10T08:28:47;11.98;;;6.20;;
50393;SDS011;36308;46.312;25.288;2023-05-10T08:31:12;13.25;;;7.68;;
50393;SDS011;36308;46.312;25.288;2023-05-10T08:33:38;7.45;;;2.65;;
50393;SDS011;36308;46.312;25.288;2023-05-10T08:36:03;2.35;;;1.77;;
50393;SDS011;36308;46.312;25.288;2023-05-10T08:38:29;5.65;;;3.17;;
50393;SDS011;36308;46.312;25.288;2023-05-10T08:40:55;3.10;;;1.90;;
50393;SDS011;36308;46.312;25.288;2023-05-10T08:43:26;4.65;;;2.00;;
50393;SDS011;36308;46.312;25.288;2023-05-10T08:45:54;4.05;;;2.05;;
50393;SDS011;36308;46.312;25.288;2023-05-10T08:48:22;3.20;;;1.70;;
50393;SDS011;36308;46.312;25.288;2023-05-10T08:50:49;4.57;;;1.70;;
50393;SDS011;36308;46.312;25.288;2023-05-10T08:53:18;3.05;;;1.42;;
50393;SDS011;36308;46.312;25.288;2023-05-10T08:55:45;5.63;;;1.95;;
50393;SDS011;36308;46.312;25.288;2023-05-10T08:58:11;1.98;;;1.45;;
50393;SDS011;36308;46.312;25.288;2023-05-10T09:00:36;1.63;;;1.20;;
50393;SDS011;36308;46.312;25.288;2023-05-10T09:03:03;3.28;;;1.77;;
50393;SDS011;36308;46.312;25.288;2023-05-10T09:05:29;4.50;;;1.90;;
50393;SDS011;36308;46.312;25.288;2023-05-10T09:07:56;3.00;;;2.17;;
50393;SDS011;36308;46.312;25.288;2023-05-10T09:10:21;6.13;;;4.03;;
50393;SDS011;36308;46.312;25.288;2023-05-10T09:12:50;9.25;;;6.72;;
50393;SDS011;36308;46.312;25.288;2023-05-10T09:15:16;10.90;;;6.63;;
50393;SDS011;36308;46.312;25.288;2023-05-10T09:17:44;4.55;;;2.60;;
50393;SDS011;36308;46.312;25.288;2023-05-10T09:20:11;13.05;;;6.93;;
50393;SDS011;36308;46.312;25.288;2023-05-10T09:22:36;4.88;;;3.45;;
50393;SDS011;36308;46.312;25.288;2023-05-10T09:25:09;4.53;;;2.00;;
50393;SDS011;36308;46.312;25.288;2023-05-10T09:27:37;4.97;;;1.50;;
50393;SDS011;36308;46.312;25.288;2023-05-10T09:30:06;2.25;;;1.60;;
50393;SDS011;36308;46.312;25.288;2023-05-10T09:32:37;5.18;;;2.17;;
50393;SDS011;36308;46.312;25.288;2023-05-10T09:35:07;4.32;;;2.47;;
50393;SDS011;36308;46.312;25.288;2023-05-10T09:37:38;4.88;;;2.00;;
50393;SDS011;36308;46.312;25.288;2023-05-10T09:40:10;2.13;;;1.75;;
50393;SDS011;36308;46.312;25.288;2023-05-10T09:42:37;2.53;;;1.30;;
50393;SDS011;36308;46.312;25.288;2023-05-10T09:45:04;2.65;;;1.50;;
50393;SDS011;36308;46.312;25.288;2023-05-10T09:47:34;3.08;;;1.60;;
50393;SDS011;36308;46.312;25.288;2023-05-10T09:50:00;2.05;;;1.50;;
50393;SDS011;36308;46.312;25.288;2023-05-10T09:52:45;4.53;;;1.92;;
50393;SDS011;36308;46.312;25.288;2023-05-10T09:55:13;3.10;;;1.10;;
50393;SDS011;36308;46.312;25.288;2023-05-10T09:57:39;2.97;;;1.40;;
50393;SDS011;36308;46.312;25.288;2023-05-10T10:00:06;4.75;;;2.42;;
50393;SDS011;36308;46.312;25.288;2023-05-10T10:02:33;2.45;;;1.75;;
50393;SDS011;36308;46.312;25.288;2023-05-10T10:05:02;6.60;;;2.38;;
50393;SDS011;36308;46.312;25.288;2023-05-10T10:07:28;6.85;;;3.40;;
50393;SDS011;36308;46.312;25.288;2023-05-10T10:09:54;2.88;;;2.28;;
50393;SDS011;36308;46.312;25.288;2023-05-10T10:12:20;3.08;;;1.88;;
50393;SDS011;36308;46.312;25.288;2023-05-10T10:14:46;3.13;;;1.55;;
50393;SDS011;36308;46.312;25.288;2023-05-10T10:17:15;3.80;;;1.67;;
50393;SDS011;36308;46.312;25.288;2023-05-10T10:19:41;1.90;;;1.20;;
50393;SDS011;36308;46.312;25.288;2023-05-10T10:22:07;7.10;;;2.90;;
50393;SDS011;36308;46.312;25.288;2023-05-10T10:24:32;2.42;;;1.77;;
50393;SDS011;36308;46.312;25.288;2023-05-10T10:27:04;2.10;;;1.42;;
50393;SDS011;36308;46.312;25.288;2023-05-10T10:34:38;2.15;;;1.83;;
50393;SDS011;36308;46.312;25.288;2023-05-10T10:37:05;18.30;;;10.10;;
50393;SDS011;36308;46.312;25.288;2023-05-10T10:39:31;3.25;;;2.00;;
50393;SDS011;36308;46.312;25.288;2023-05-10T10:41:58;1.38;;;1.20;;
50393;SDS011;36308;46.312;25.288;2023-05-10T10:49:49;3.70;;;1.60;;
50393;SDS011;36308;46.312;25.288;2023-05-10T11:02:59;1.15;;;1.05;;
50393;SDS011;36308;46.312;25.288;2023-05-10T11:07:58;5.38;;;2.00;;
50393;SDS011;36308;46.312;25.288;2023-05-10T11:10:25;2.13;;;1.48;;
50393;SDS011;36308;46.312;25.288;2023-05-10T11:20:43;3.80;;;1.77;;
50393;SDS011;36308;46.312;25.288;2023-05-10T11:23:12;1.70;;;1.30;;
50393;SDS011;36308;46.312;25.288;2023-05-10T11:25:43;4.57;;;1.30;;
50393;SDS011;36308;46.312;25.288;2023-05-10T11:28:14;2.83;;;1.52;;
50393;SDS011;36308;46.312;25.288;2023-05-10T11:30:42;2.10;;;1.33;;
50393;SDS011;36308;46.312;25.288;2023-05-10T11:33:09;6.07;;;2.22;;
50393;SDS011;36308;46.312;25.288;2023-05-10T11:35:40;2.63;;;1.80;;
50393;SDS011;36308;46.312;25.288;2023-05-10T11:38:06;2.53;;;1.80;;
50393;SDS011;36308;46.312;25.288;2023-05-10T11:40:33;1.90;;;1.15;;
50393;SDS011;36308;46.312;25.288;2023-05-10T11:42:59;2.13;;;1.40;;
50393;SDS011;36308;46.312;25.288;2023-05-10T11:45:24;5.10;;;1.10;;
50393;SDS011;36308;46.312;25.288;2023-05-10T11:47:51;1.40;;;1.15;;
50393;SDS011;36308;46.312;25.288;2023-05-10T11:50:17;1.52;;;1.00;;
50393;SDS011;36308;46.312;25.288;2023-05-10T11:52:42;2.92;;;1.23;;
50393;SDS011;36308;46.312;25.288;2023-05-10T11:55:08;5.90;;;3.40;;
50393;SDS011;36308;46.312;25.288;2023-05-10T11:57:34;3.30;;;2.40;;
50393;SDS011;36308;46.312;25.288;2023-05-10T12:00:00;3.67;;;2.05;;
50393;SDS011;36308;46.312;25.288;2023-05-10T12:02:28;3.70;;;2.15;;
50393;SDS011;36308;46.312;25.288;2023-05-10T12:04:56;2.95;;;1.50;;
50393;SDS011;36308;46.312;25.288;2023-05-10T12:07:21;1.92;;;1.60;;
50393;SDS011;36308;46.312;25.288;2023-05-10T12:10:06;4.47;;;2.28;;
50393;SDS011;36308;46.312;25.288;2023-05-10T12:12:40;4.72;;;1.98;;
50393;SDS011;36308;46.312;25.288;2023-05-10T12:15:10;4.65;;;3.33;;
50393;SDS011;36308;46.312;25.288;2023-05-10T12:17:45;2.65;;;1.55;;
50393;SDS011;36308;46.312;25.288;2023-05-10T12:20:20;2.58;;;1.80;;
50393;SDS011;36308;46.312;25.288;2023-05-10T12:22:53;3.67;;;2.75;;
50393;SDS011;36308;46.312;25.288;2023-05-10T12:25:20;5.30;;;1.92;;
50393;SDS011;36308;46.312;25.288;2023-05-10T12:27:51;5.53;;;3.20;;
50393;SDS011;36308;46.312;25.288;2023-05-10T12:30:25;16.50;;;9.55;;
50393;SDS011;36308;46.312;25.288;2023-05-10T12:35:18;3.50;;;1.60;;
50393;SDS011;36308;46.312;25.288;2023-05-10T12:37:49;5.53;;;1.90;;
50393;SDS011;36308;46.312;25.288;2023-05-10T12:40:15;4.47;;;2.08;;
50393;SDS011;36308;46.312;25.288;2023-05-10T12:42:41;1.63;;;1.40;;
50393;SDS011;36308;46.312;25.288;2023-05-10T12:45:07;2.03;;;1.50;;
50393;SDS011;36308;46.312;25.288;2023-05-10T12:47:34;3.42;;;1.80;;
50393;SDS011;36308;46.312;25.288;2023-05-10T12:50:00;3.40;;;1.50;;
50393;SDS011;36308;46.312;25.288;2023-05-10T12:52:27;3.88;;;2.17;;
50393;SDS011;36308;46.312;25.288;2023-05-10T12:54:53;4.95;;;2.05;;
50393;SDS011;36308;46.312;25.288;2023-05-10T12:57:22;4.43;;;2.05;;
50393;SDS011;36308;46.312;25.288;2023-05-10T12:59:48;4.57;;;2.35;;
50393;SDS011;36308;46.312;25.288;2023-05-10T13:02:13;6.43;;;2.05;;
50393;SDS011;36308;46.312;25.288;2023-05-10T13:04:39;4.47;;;2.22;;
50393;SDS011;36308;46.312;25.288;2023-05-10T13:07:06;4.05;;;1.88;;
50393;SDS011;36308;46.312;25.288;2023-05-10T13:09:31;4.18;;;2.10;;
50393;SDS011;36308;46.312;25.288;2023-05-10T13:11:57;4.25;;;2.35;;
50393;SDS011;36308;46.312;25.288;2023-05-10T13:14:22;4.35;;;1.38;;
50393;SDS011;36308;46.312;25.288;2023-05-10T13:16:48;3.38;;;1.50;;
50393;SDS011;36308;46.312;25.288;2023-05-10T13:19:14;3.75;;;1.50;;
50393;SDS011;36308;46.312;25.288;2023-05-10T13:21:39;5.20;;;2.15;;
50393;SDS011;36308;46.312;25.288;2023-05-10T13:24:09;4.28;;;2.22;;
50393;SDS011;36308;46.312;25.288;2023-05-10T13:26:36;4.70;;;2.13;;
50393;SDS011;36308;46.312;25.288;2023-05-10T13:29:02;3.97;;;1.83;;
50393;SDS011;36308;46.312;25.288;2023-05-10T13:31:28;3.25;;;1.90;;
50393;SDS011;36308;46.312;25.288;2023-05-10T13:33:54;2.80;;;1.42;;
50393;SDS011;36308;46.312;25.288;2023-05-10T13:36:19;2.90;;;1.90;;
50393;SDS011;36308;46.312;25.288;2023-05-10T13:38:45;3.72;;;1.60;;
50393;SDS011;36308;46.312;25.288;2023-05-10T13:41:10;3.45;;;1.45;;
50393;SDS011;36308;46.312;25.288;2023-05-10T13:43:36;2.65;;;1.73;;
50393;SDS011;36308;46.312;25.288;2023-05-10T13:46:01;4.53;;;1.77;;
50393;SDS011;36308;46.312;25.288;2023-05-10T13:48:27;2.58;;;1.17;;
50393;SDS011;36308;46.312;25.288;2023-05-10T13:50:53;7.18;;;2.42;;
50393;SDS011;36308;46.312;25.288;2023-05-10T13:53:19;4.28;;;1.45;;
50393;SDS011;36308;46.312;25.288;2023-05-10T13:55:44;3.85;;;2.38;;
50393;SDS011;36308;46.312;25.288;2023-05-10T13:58:10;2.65;;;1.63;;
50393;SDS011;36308;46.312;25.288;2023-05-10T14:00:35;5.57;;;1.85;;
50393;SDS011;36308;46.312;25.288;2023-05-10T14:03:01;4.85;;;1.55;;
50393;SDS011;36308;46.312;25.288;2023-05-10T14:05:27;3.03;;;2.05;;
50393;SDS011;36308;46.312;25.288;2023-05-10T14:07:52;8.05;;;2.03;;
50393;SDS011;36308;46.312;25.288;2023-05-10T14:10:18;4.57;;;2.10;;
50393;SDS011;36308;46.312;25.288;2023-05-10T14:12:44;2.47;;;1.50;;
50393;SDS011;36308;46.312;25.288;2023-05-10T14:15:09;4.03;;;1.67;;
50393;SDS011;36308;46.312;25.288;2023-05-10T14:17:36;3.22;;;2.28;;
50393;SDS011;36308;46.312;25.288;2023-05-10T14:20:02;1.40;;;1.20;;
50393;SDS011;36308;46.312;25.288;2023-05-10T14:22:28;6.07;;;1.75;;
50393;SDS011;36308;46.312;25.288;2023-05-10T14:24:54;5.65;;;2.05;;
50393;SDS011;36308;46.312;25.288;2023-05-10T14:27:20;2.60;;;1.42;;
50393;SDS011;36308;46.312;25.288;2023-05-10T14:29:46;6.00;;;3.13;;
50393;SDS011;36308;46.312;25.288;2023-05-10T14:32:12;8.18;;;1.88;;
50393;SDS011;36308;46.312;25.288;2023-05-10T14:34:38;5.35;;;1.75;;
50393;SDS011;36308;46.312;25.288;2023-05-10T14:37:03;4.03;;;1.33;;
50393;SDS011;36308;46.312;25.288;2023-05-10T14:39:29;3.03;;;1.83;;
50393;SDS011;36308;46.312;25.288;2023-05-10T14:41:55;3.90;;;2.00;;
50393;SDS011;36308;46.312;25.288;2023-05-10T14:44:20;2.15;;;1.58;;
50393;SDS011;36308;46.312;25.288;2023-05-10T14:46:46;5.43;;;2.47;;
50393;SDS011;36308;46.312;25.288;2023-05-10T14:49:13;7.78;;;1.70;;
50393;SDS011;36308;46.312;25.288;2023-05-10T14:51:38;5.15;;;2.10;;
50393;SDS011;36308;46.312;25.288;2023-05-10T14:54:04;6.03;;;3.35;;
50393;SDS011;36308;46.312;25.288;2023-05-10T14:56:29;5.20;;;2.25;;
50393;SDS011;36308;46.312;25.288;2023-05-10T14:58:55;3.88;;;2.47;;
50393;SDS011;36308;46.312;25.288;2023-05-10T15:04:07;2.60;;;2.05;;
50393;SDS011;36308;46.312;25.288;2023-05-10T15:06:33;4.97;;;2.85;;
50393;SDS011;36308;46.312;25.288;2023-05-10T15:09:00;6.07;;;2.15;;
50393;SDS011;36308;46.312;25.288;2023-05-10T15:11:26;19.20;;;9.38;;
50393;SDS011;36308;46.312;25.288;2023-05-10T15:13:52;5.22;;;3.28;;
50393;SDS011;36308;46.312;25.288;2023-05-10T15:16:18;6.85;;;3.55;;
50393;SDS011;36308;46.312;25.288;2023-05-10T15:18:44;4.80;;;1.75;;
50393;SDS011;36308;46.312;25.288;2023-05-10T15:21:10;2.65;;;1.85;;
50393;SDS011;36308;46.312;25.288;2023-05-10T15:23:36;3.03;;;1.70;;
50393;SDS011;36308;46.312;25.288;2023-05-10T15:26:02;4.03;;;1.60;;
50393;SDS011;36308;46.312;25.288;2023-05-10T15:28:27;4.55;;;1.90;;
50393;SDS011;36308;46.312;25.288;2023-05-10T15:30:53;4.20;;;1.73;;
50393;SDS011;36308;46.312;25.288;2023-05-10T15:33:19;2.70;;;1.65;;
50393;SDS011;36308;46.312;25.288;2023-05-10T15:35:44;6.15;;;3.67;;
50393;SDS011;36308;46.312;25.288;2023-05-10T15:38:10;3.72;;;1.98;;
50393;SDS011;36308;46.312;25.288;2023-05-10T15:40:36;8.82;;;3.10;;